createdAt,value
2018-12-19T00:01:32.540Z,3.53
2018-12-19T00:04:01.168Z,3.10
2018-12-19T00:06:29.762Z,2.67
2018-12-19T00:09:03.186Z,2.97
2018-12-19T00:11:29.088Z,2.97
2018-12-19T00:13:57.715Z,2.63
2018-12-19T00:16:26.349Z,3.13
2018-12-19T00:18:54.940Z,2.73
2018-12-19T00:21:23.562Z,2.87
2018-12-19T00:23:52.195Z,2.83
2018-12-19T00:26:20.860Z,2.67
2018-12-19T00:28:49.481Z,2.83
2018-12-19T00:31:18.083Z,2.60
2018-12-19T00:33:46.714Z,2.73
2018-12-19T00:36:15.330Z,3.50
2018-12-19T00:38:43.967Z,3.37
2018-12-19T00:41:12.584Z,4.13
2018-12-19T00:43:41.211Z,2.97
2018-12-19T00:46:09.811Z,3.30
2018-12-19T00:48:38.437Z,2.87
2018-12-19T00:51:07.061Z,3.23
2018-12-19T00:53:35.683Z,2.83
2018-12-19T00:56:04.327Z,2.87
2018-12-19T00:58:32.952Z,2.67
2018-12-19T01:01:01.556Z,2.40
2018-12-19T01:03:30.211Z,2.43
2018-12-19T01:05:58.824Z,2.50
2018-12-19T01:08:27.478Z,2.30
2018-12-19T01:10:56.121Z,2.97
2018-12-19T01:13:24.761Z,2.40
2018-12-19T01:15:53.362Z,2.73
2018-12-19T01:18:21.971Z,2.53
2018-12-19T01:20:50.619Z,2.77
2018-12-19T01:23:19.273Z,2.53
2018-12-19T01:25:47.889Z,2.53
2018-12-19T01:28:16.520Z,2.60
2018-12-19T01:30:45.189Z,2.33
2018-12-19T01:33:13.850Z,2.33
2018-12-19T01:35:42.503Z,2.67
2018-12-19T01:38:11.115Z,2.60
2018-12-19T01:40:39.740Z,2.33
2018-12-19T01:43:08.351Z,2.23
2018-12-19T01:45:36.979Z,2.60
2018-12-19T01:48:05.575Z,1.97
2018-12-19T01:50:34.219Z,1.83
2018-12-19T01:53:02.875Z,3.07
2018-12-19T01:55:31.532Z,2.97
2018-12-19T01:58:00.179Z,2.83
2018-12-19T02:00:32.199Z,2.37
2018-12-19T02:03:01.164Z,2.30
2018-12-19T02:05:29.821Z,3.30
2018-12-19T02:07:58.438Z,1.73
2018-12-19T02:10:27.618Z,1.90
2018-12-19T02:12:56.227Z,1.80
2018-12-19T02:15:24.932Z,2.00
2018-12-19T02:17:53.558Z,1.93
2018-12-19T02:20:22.163Z,2.27
2018-12-19T02:22:50.896Z,1.77
2018-12-19T02:25:19.526Z,1.80
2018-12-19T02:27:48.154Z,2.13
2018-12-19T02:30:16.866Z,1.80
2018-12-19T02:32:45.936Z,2.33
2018-12-19T02:35:14.590Z,1.90
2018-12-19T02:37:43.203Z,1.90
2018-12-19T02:40:11.824Z,3.07
2018-12-19T02:42:40.455Z,2.37
2018-12-19T02:45:09.080Z,1.83
2018-12-19T02:47:37.723Z,1.80
2018-12-19T02:50:06.613Z,2.00
2018-12-19T02:52:35.231Z,1.60
2018-12-19T02:55:03.905Z,2.10
2018-12-19T02:57:32.535Z,2.57
2018-12-19T03:00:01.159Z,1.97
2018-12-19T03:02:29.810Z,1.70
2018-12-19T03:04:58.436Z,2.10
2018-12-19T03:07:27.450Z,2.40
2018-12-19T03:09:56.563Z,2.13
2018-12-19T03:12:25.206Z,2.33
2018-12-19T03:14:53.836Z,1.97
2018-12-19T03:17:22.467Z,1.70
2018-12-19T03:19:51.083Z,2.57
2018-12-19T03:22:19.697Z,2.53
2018-12-19T03:24:48.328Z,1.70
2018-12-19T03:27:16.975Z,2.53
2018-12-19T03:29:45.579Z,2.83
2018-12-19T03:32:14.218Z,2.80
2018-12-19T03:34:42.907Z,2.33
2018-12-19T03:37:11.544Z,2.20
2018-12-19T03:39:40.245Z,2.10
2018-12-19T03:42:08.889Z,2.20
2018-12-19T03:44:37.528Z,2.27
2018-12-19T03:47:06.140Z,2.20
2018-12-19T03:49:35.112Z,2.83
2018-12-19T03:52:03.941Z,1.83
2018-12-19T03:54:32.639Z,2.10
2018-12-19T03:57:01.935Z,2.60
2018-12-19T03:59:30.555Z,2.07
2018-12-19T04:01:59.201Z,2.53
2018-12-19T04:04:27.803Z,2.50
2018-12-19T04:06:56.483Z,2.40
2018-12-19T04:09:25.125Z,2.03
2018-12-19T04:11:53.764Z,2.27
2018-12-19T04:14:22.363Z,2.33
2018-12-19T04:16:50.984Z,2.30
2018-12-19T04:19:19.600Z,2.73
2018-12-19T04:21:48.218Z,2.10
2018-12-19T04:24:16.872Z,2.60
2018-12-19T04:26:45.489Z,2.03
2018-12-19T04:29:14.143Z,2.10
2018-12-19T04:31:42.750Z,2.00
2018-12-19T04:34:11.352Z,2.43
2018-12-19T04:36:39.989Z,2.57
2018-12-19T04:39:08.609Z,1.67
2018-12-19T04:41:37.812Z,1.93
2018-12-19T04:44:06.548Z,1.70
2018-12-19T04:46:35.282Z,1.97
2018-12-19T04:49:03.930Z,2.93
2018-12-19T04:51:32.587Z,1.90
2018-12-19T04:54:01.203Z,1.83
2018-12-19T04:56:29.819Z,2.00
2018-12-19T04:58:58.431Z,2.33
2018-12-19T05:01:27.111Z,2.63
2018-12-19T05:03:55.735Z,3.30
2018-12-19T05:06:24.367Z,2.00
2018-12-19T05:08:52.973Z,2.07
2018-12-19T05:11:21.605Z,1.90
2018-12-19T05:13:50.224Z,2.50
2018-12-19T05:16:18.851Z,1.83
2018-12-19T05:18:47.485Z,1.90
2018-12-19T05:21:16.090Z,2.13
2018-12-19T05:23:44.723Z,2.37
2018-12-19T05:26:13.323Z,2.03
2018-12-19T05:28:41.992Z,2.10
2018-12-19T05:31:10.662Z,2.10
2018-12-19T05:33:39.390Z,2.17
2018-12-19T05:36:08.128Z,2.07
2018-12-19T05:38:36.707Z,2.27
2018-12-19T05:41:05.315Z,1.87
2018-12-19T05:43:33.928Z,2.23
2018-12-19T05:46:02.539Z,2.27
2018-12-19T05:48:31.138Z,2.30
2018-12-19T05:50:59.747Z,3.20
2018-12-19T05:53:28.359Z,3.00
2018-12-19T05:55:57.005Z,2.00
2018-12-19T05:58:25.600Z,2.10
2018-12-19T06:00:54.223Z,2.80
2018-12-19T06:03:22.866Z,2.13
2018-12-19T06:05:51.454Z,2.57
2018-12-19T06:08:20.040Z,1.97
2018-12-19T06:10:48.620Z,2.80
2018-12-19T06:13:17.320Z,2.83
2018-12-19T06:15:45.903Z,2.40
2018-12-19T06:18:14.555Z,2.60
2018-12-19T06:20:43.171Z,2.67
2018-12-19T06:23:11.763Z,2.43
2018-12-19T06:25:40.363Z,2.47
2018-12-19T06:28:08.965Z,2.00
2018-12-19T06:30:37.781Z,3.10
2018-12-19T06:33:06.363Z,2.60
2018-12-19T06:35:34.942Z,2.50
2018-12-19T06:38:03.540Z,2.10
2018-12-19T06:40:32.835Z,1.97
2018-12-19T06:43:01.540Z,2.47
2018-12-19T06:45:30.130Z,2.00
2018-12-19T06:47:58.735Z,2.33
2018-12-19T06:50:27.326Z,2.43
2018-12-19T06:52:55.957Z,2.57
2018-12-19T06:55:24.566Z,2.00
2018-12-19T06:57:53.211Z,1.60
2018-12-19T07:00:21.863Z,2.53
2018-12-19T07:02:50.443Z,2.20
2018-12-19T07:05:19.036Z,2.27
2018-12-19T07:07:47.619Z,2.37
2018-12-19T07:10:16.223Z,3.17
2018-12-19T07:12:44.855Z,2.47
2018-12-19T07:15:13.457Z,2.50
2018-12-19T07:17:42.793Z,2.53
2018-12-19T07:20:11.408Z,2.87
2018-12-19T07:22:39.992Z,2.60
2018-12-19T07:25:08.923Z,4.30
2018-12-19T07:27:37.515Z,3.10
2018-12-19T07:30:06.964Z,2.87
2018-12-19T07:32:35.575Z,3.23
2018-12-19T07:35:04.472Z,3.10
2018-12-19T07:37:33.070Z,3.17
2018-12-19T07:40:01.759Z,3.60
2018-12-19T07:42:30.403Z,2.90
2018-12-19T07:44:58.991Z,2.53
2018-12-19T07:47:27.604Z,2.90
2018-12-19T07:49:56.203Z,2.77
2018-12-19T07:52:24.799Z,3.47
2018-12-19T07:54:53.399Z,2.70
2018-12-19T07:57:22.007Z,3.10
2018-12-19T07:59:50.611Z,3.93
2018-12-19T08:02:19.210Z,4.43
2018-12-19T08:04:48.073Z,3.77
2018-12-19T08:07:16.680Z,4.27
2018-12-19T08:09:45.270Z,4.23
2018-12-19T08:12:13.887Z,2.73
2018-12-19T08:14:42.522Z,3.30
2018-12-19T08:17:11.138Z,3.60
2018-12-19T08:19:39.756Z,3.53
2018-12-19T08:22:08.346Z,3.53
2018-12-19T08:24:36.960Z,3.33
2018-12-19T08:27:05.591Z,4.17
2018-12-19T08:29:34.501Z,4.20
2018-12-19T08:32:03.124Z,7.83
2018-12-19T08:34:31.776Z,5.00
2018-12-19T08:37:00.424Z,5.13
2018-12-19T08:39:29.223Z,4.67
2018-12-19T08:41:57.935Z,4.73
2018-12-19T08:44:26.571Z,4.30
2018-12-19T08:46:55.216Z,5.67
2018-12-19T08:49:23.860Z,4.93
2018-12-19T08:51:52.540Z,3.83
2018-12-19T08:54:21.203Z,4.53
2018-12-19T08:56:49.887Z,3.80
2018-12-19T08:59:18.512Z,3.10
2018-12-19T09:01:47.125Z,3.60
2018-12-19T09:04:15.748Z,2.93
2018-12-19T09:06:44.380Z,2.93
2018-12-19T09:09:12.987Z,3.30
2018-12-19T09:11:41.688Z,3.10
2018-12-19T09:14:10.363Z,3.07
2018-12-19T09:16:38.987Z,2.60
2018-12-19T09:19:07.651Z,3.13
2018-12-19T09:21:36.275Z,2.70
2018-12-19T09:24:04.899Z,3.63
2018-12-19T09:26:33.518Z,4.03
2018-12-19T09:29:02.161Z,4.10
2018-12-19T09:31:30.782Z,4.53
2018-12-19T09:33:59.391Z,4.33
2018-12-19T09:36:28.360Z,3.83
2018-12-19T09:38:57.032Z,4.57
2018-12-19T09:41:25.687Z,5.57
2018-12-19T09:43:54.320Z,6.03
2018-12-19T09:46:22.921Z,4.53
2018-12-19T09:48:51.551Z,6.37
2018-12-19T09:51:20.198Z,5.53
2018-12-19T09:53:48.801Z,5.10
2018-12-19T09:56:17.646Z,5.43
2018-12-19T09:58:46.282Z,4.93
2018-12-19T10:01:14.920Z,3.33
2018-12-19T10:03:43.550Z,3.13
2018-12-19T10:06:12.166Z,2.73
2018-12-19T10:08:40.803Z,3.17
2018-12-19T10:11:09.450Z,3.77
2018-12-19T10:13:38.079Z,4.53
2018-12-19T10:16:06.719Z,6.20
2018-12-19T10:18:35.381Z,7.20
2018-12-19T10:21:04.051Z,8.30
2018-12-19T10:23:33.288Z,3.90
2018-12-19T10:26:07.200Z,4.87
2018-12-19T10:28:35.852Z,3.00
2018-12-19T10:31:04.631Z,4.73
2018-12-19T10:33:36.007Z,2.33
2018-12-19T10:36:04.668Z,1.93
2018-12-19T10:38:33.307Z,1.90
2018-12-19T10:41:01.953Z,1.60
2018-12-19T10:43:30.604Z,1.53
2018-12-19T10:45:59.231Z,1.57
2018-12-19T10:48:27.848Z,1.60
2018-12-19T10:50:56.479Z,1.80
2018-12-19T10:53:25.128Z,1.50
2018-12-19T10:55:53.735Z,1.90
2018-12-19T10:58:22.367Z,2.00
2018-12-19T11:00:56.426Z,2.60
2018-12-19T11:03:25.056Z,1.60
2018-12-19T11:05:54.427Z,1.47
2018-12-19T11:08:23.526Z,3.27
2018-12-19T11:10:52.334Z,2.80
2018-12-19T11:13:20.960Z,4.77
2018-12-19T11:15:49.583Z,3.50
2018-12-19T11:18:18.201Z,2.13
2018-12-19T11:20:46.857Z,2.20
2018-12-19T11:23:15.465Z,2.27
2018-12-19T11:25:44.097Z,3.00
2018-12-19T11:28:12.770Z,3.47
2018-12-19T11:30:41.382Z,2.90
2018-12-19T11:33:10.008Z,4.77
2018-12-19T11:35:38.637Z,3.07
2018-12-19T11:38:07.259Z,3.23
2018-12-19T11:40:35.879Z,3.40
2018-12-19T11:43:04.568Z,2.17
2018-12-19T11:45:33.187Z,1.90
2018-12-19T11:48:01.850Z,2.33
2018-12-19T11:50:30.460Z,1.70
2018-12-19T11:52:59.074Z,2.23
2018-12-19T11:55:27.732Z,1.53
2018-12-19T11:57:56.356Z,1.60
2018-12-19T12:00:24.978Z,1.53
2018-12-19T12:02:53.603Z,2.13
2018-12-19T12:05:22.236Z,1.77
2018-12-19T12:07:50.851Z,1.77
2018-12-19T12:10:19.536Z,2.00
2018-12-19T12:12:48.151Z,1.70
2018-12-19T12:15:16.783Z,1.40
2018-12-19T12:17:45.413Z,2.60
2018-12-19T12:20:14.036Z,2.13
2018-12-19T12:22:42.642Z,2.50
2018-12-19T12:25:11.260Z,1.83
2018-12-19T12:27:39.866Z,1.50
2018-12-19T12:30:08.698Z,2.00
2018-12-19T12:32:37.312Z,2.30
2018-12-19T12:35:08.516Z,2.07
2018-12-19T12:37:37.151Z,1.67
2018-12-19T12:40:07.283Z,3.63
2018-12-19T12:42:35.952Z,5.77
2018-12-19T12:45:05.107Z,1.93
2018-12-19T12:47:33.822Z,1.97
2018-12-19T12:50:02.502Z,1.60
2018-12-19T12:52:31.131Z,1.77
2018-12-19T12:54:59.788Z,1.93
2018-12-19T12:57:28.488Z,1.97
2018-12-19T12:59:57.098Z,1.83
2018-12-19T13:02:25.701Z,2.23
2018-12-19T13:04:54.339Z,2.00
2018-12-19T13:07:22.983Z,2.30
2018-12-19T13:09:51.595Z,2.00
2018-12-19T13:12:20.222Z,1.60
2018-12-19T13:14:48.880Z,1.97
2018-12-19T13:17:17.552Z,1.63
2018-12-19T13:19:46.162Z,1.63
2018-12-19T13:22:14.772Z,1.70
2018-12-19T13:24:43.421Z,2.00
2018-12-19T13:27:12.109Z,1.80
2018-12-19T13:29:40.883Z,2.20
2018-12-19T13:32:10.180Z,2.00
2018-12-19T13:34:38.824Z,2.20
2018-12-19T13:37:07.466Z,2.10
2018-12-19T13:39:36.133Z,1.67
2018-12-19T13:42:05.771Z,1.83
2018-12-19T13:44:34.659Z,2.40
2018-12-19T13:47:03.335Z,3.80
2018-12-19T13:49:31.981Z,3.23
2018-12-19T13:52:00.706Z,2.60
2018-12-19T13:54:29.320Z,3.30
2018-12-19T13:56:57.971Z,2.63
2018-12-19T13:59:26.581Z,1.90
2018-12-19T14:01:55.220Z,2.20
2018-12-19T14:04:24.038Z,2.00
2018-12-19T14:06:52.683Z,1.93
2018-12-19T14:09:21.339Z,2.27
2018-12-19T14:11:50.490Z,1.60
2018-12-19T14:14:19.099Z,1.43
2018-12-19T14:16:47.753Z,1.30
2018-12-19T14:19:16.373Z,1.17
2018-12-19T14:21:45.017Z,1.20
2018-12-19T14:24:13.766Z,1.47
2018-12-19T14:26:42.426Z,1.03
2018-12-19T14:29:11.075Z,1.40
2018-12-19T14:31:39.696Z,1.17
2018-12-19T14:34:08.355Z,1.00
2018-12-19T14:36:36.986Z,0.90
2018-12-19T14:39:07.218Z,1.10
2018-12-19T14:44:03.896Z,0.70
2018-12-19T14:46:32.523Z,0.90
2018-12-19T14:49:01.162Z,1.00
2018-12-19T14:51:29.807Z,1.17
2018-12-19T14:53:58.449Z,1.20
2018-12-19T14:56:27.130Z,1.20
2018-12-19T14:58:55.798Z,0.83
2018-12-19T15:01:24.463Z,1.30
2018-12-19T15:03:53.769Z,1.70
2018-12-19T15:06:22.395Z,1.60
2018-12-19T15:08:51.020Z,1.30
2018-12-19T15:11:19.727Z,1.50
2018-12-19T15:13:48.394Z,1.43
2018-12-19T15:16:21.489Z,1.50
2018-12-19T15:18:50.855Z,1.50
2018-12-19T15:21:19.600Z,2.53
2018-12-19T15:23:48.299Z,2.10
2018-12-19T15:26:17.044Z,1.80
2018-12-19T15:28:45.643Z,1.80
2018-12-19T15:31:14.306Z,1.67
2018-12-19T15:33:42.966Z,1.80
2018-12-19T15:36:11.691Z,4.20
2018-12-19T15:38:40.359Z,6.87
2018-12-19T15:41:08.974Z,2.87
2018-12-19T15:43:37.611Z,2.33
2018-12-19T15:46:06.248Z,2.70
2018-12-19T15:48:35.012Z,1.90
2018-12-19T15:51:03.839Z,1.60
2018-12-19T15:53:32.490Z,1.40
2018-12-19T15:56:01.145Z,1.30
2018-12-19T15:58:29.793Z,1.47
2018-12-19T16:00:58.463Z,1.73
2018-12-19T16:03:27.087Z,1.70
2018-12-19T16:05:55.717Z,1.57
2018-12-19T16:08:24.363Z,1.10
2018-12-19T16:10:53.000Z,1.10
2018-12-19T16:13:21.708Z,1.40
2018-12-19T16:15:50.351Z,1.10
2018-12-19T16:18:18.978Z,1.30
2018-12-19T16:20:47.608Z,1.03
2018-12-19T16:23:16.230Z,1.93
2018-12-19T16:25:44.856Z,2.90
2018-12-19T16:28:13.485Z,2.10
2018-12-19T16:30:42.128Z,1.73
2018-12-19T16:33:10.763Z,1.83
2018-12-19T16:35:39.404Z,1.60
2018-12-19T16:38:08.051Z,1.00
2018-12-19T16:40:36.680Z,1.70
2018-12-19T16:43:05.357Z,1.10
2018-12-19T16:45:34.014Z,2.10
2018-12-19T16:48:02.699Z,1.83
2018-12-19T16:50:31.421Z,2.03
2018-12-19T16:53:00.024Z,2.47
2018-12-19T16:55:28.630Z,1.60
2018-12-19T16:57:57.251Z,1.57
2018-12-19T17:00:25.880Z,1.63
2018-12-19T17:02:54.493Z,1.80
2018-12-19T17:05:23.196Z,1.10
2018-12-19T17:07:51.857Z,1.17
2018-12-19T17:10:20.617Z,4.50
2018-12-19T17:12:52.681Z,5.10
2018-12-19T17:15:20.055Z,4.93
2018-12-19T17:17:48.833Z,4.33
2018-12-19T17:20:18.039Z,3.70
2018-12-19T17:22:46.651Z,5.80
2018-12-19T17:25:15.319Z,4.87
2018-12-19T17:27:43.959Z,5.00
2018-12-19T17:30:12.641Z,4.20
2018-12-19T17:32:41.319Z,7.37
2018-12-19T17:35:09.927Z,5.77
2018-12-19T17:37:38.567Z,5.93
2018-12-19T17:40:07.270Z,5.00
2018-12-19T17:42:35.912Z,9.00
2018-12-19T17:45:05.078Z,9.10
2018-12-19T17:47:33.728Z,7.80
2018-12-19T17:50:02.382Z,7.43
2018-12-19T17:52:30.991Z,7.73
2018-12-19T17:54:59.616Z,8.03
2018-12-19T17:57:28.236Z,8.33
2018-12-19T17:59:56.857Z,4.87
2018-12-19T18:02:25.485Z,4.57
2018-12-19T18:04:54.093Z,4.33
2018-12-19T18:07:22.736Z,5.83
2018-12-19T18:09:51.352Z,10.73
2018-12-19T18:12:20.019Z,9.00
2018-12-19T18:14:48.696Z,5.90
2018-12-19T18:17:17.318Z,6.47
2018-12-19T18:19:45.931Z,6.93
2018-12-19T18:22:14.551Z,6.27
2018-12-19T18:24:43.171Z,4.80
2018-12-19T18:27:11.817Z,6.23
2018-12-19T18:29:40.423Z,7.07
2018-12-19T18:32:09.047Z,6.20
2018-12-19T18:34:37.714Z,4.40
2018-12-19T18:37:06.328Z,3.90
2018-12-19T18:39:34.981Z,2.60
2018-12-19T18:42:03.647Z,3.03
2018-12-19T18:44:32.292Z,2.70
2018-12-19T18:47:00.904Z,5.13
2018-12-19T18:49:29.605Z,8.13
2018-12-19T18:51:58.305Z,4.43
2018-12-19T18:54:26.937Z,4.43
2018-12-19T18:56:55.614Z,5.20
2018-12-19T18:59:24.288Z,2.03
2018-12-19T19:01:52.926Z,2.47
2018-12-19T19:04:21.535Z,2.07
2018-12-19T19:06:50.214Z,1.87
2018-12-19T19:09:18.832Z,2.47
2018-12-19T19:11:47.505Z,2.10
2018-12-19T19:14:16.159Z,1.60
2018-12-19T19:16:44.973Z,1.30
2018-12-19T19:19:13.612Z,1.67
2018-12-19T19:21:42.221Z,2.40
2018-12-19T19:24:10.845Z,1.90
2018-12-19T19:26:40.183Z,1.57
2018-12-19T19:29:08.818Z,1.40
2018-12-19T19:31:38.026Z,1.57
2018-12-19T19:34:06.682Z,1.80
2018-12-19T19:36:35.355Z,1.30
2018-12-19T19:39:05.443Z,1.50
2018-12-19T19:41:34.110Z,1.10
2018-12-19T19:44:02.775Z,2.10
2018-12-19T19:46:31.483Z,1.50
2018-12-19T19:49:00.242Z,1.60
2018-12-19T19:51:28.914Z,1.53
2018-12-19T19:53:57.515Z,1.80
2018-12-19T19:56:26.150Z,1.47
2018-12-19T19:58:54.754Z,1.43
2018-12-19T20:01:23.384Z,1.80
2018-12-19T20:03:52.043Z,2.23
2018-12-19T20:06:21.303Z,2.00
2018-12-19T20:08:49.941Z,1.87
2018-12-19T20:11:18.594Z,1.83
2018-12-19T20:13:47.272Z,1.20
2018-12-19T20:16:15.963Z,1.17
2018-12-19T20:18:44.652Z,1.30
2018-12-19T20:21:13.299Z,1.50
2018-12-19T20:23:41.960Z,1.47
2018-12-19T20:26:10.655Z,1.50
2018-12-19T20:28:39.303Z,1.47
2018-12-19T20:31:07.946Z,1.83
2018-12-19T20:33:36.560Z,1.73
2018-12-19T20:36:05.220Z,2.17
2018-12-19T20:38:33.832Z,2.10
2018-12-19T20:41:02.520Z,1.53
2018-12-19T20:43:31.223Z,2.20
2018-12-19T20:45:59.940Z,2.27
2018-12-19T20:48:28.567Z,1.73
2018-12-19T20:50:57.255Z,1.20
2018-12-19T20:53:25.923Z,1.50
2018-12-19T20:55:55.626Z,1.10
2018-12-19T20:58:27.655Z,1.13
2018-12-19T21:00:56.288Z,0.80
2018-12-19T21:03:24.972Z,0.80
2018-12-19T21:05:53.626Z,1.03
2018-12-19T21:08:22.232Z,1.03
2018-12-19T21:10:50.900Z,0.90
2018-12-19T21:13:19.530Z,0.80
2018-12-19T21:15:48.165Z,0.70
2018-12-19T21:18:22.165Z,1.23
2018-12-19T21:20:50.774Z,1.20
2018-12-19T21:23:19.400Z,1.20
2018-12-19T21:25:48.007Z,1.83
2018-12-19T21:28:16.636Z,0.70
2018-12-19T21:30:45.267Z,0.50
2018-12-19T21:33:14.266Z,0.60
2018-12-19T21:35:43.080Z,0.40
2018-12-19T21:38:11.694Z,0.30
2018-12-19T21:40:40.324Z,0.37
2018-12-19T21:43:08.977Z,0.50
2018-12-19T21:45:37.708Z,0.30
2018-12-19T21:48:07.097Z,0.30
2018-12-19T21:50:35.748Z,0.37
2018-12-19T21:53:04.426Z,0.30
2018-12-19T21:55:33.077Z,0.50
2018-12-19T21:58:01.742Z,0.50
2018-12-19T22:00:36.876Z,0.43
2018-12-19T22:03:06.802Z,0.60
2018-12-19T22:05:37.334Z,0.40
2018-12-19T22:08:06.151Z,0.60
2018-12-19T22:10:34.822Z,0.70
2018-12-19T22:13:04.420Z,1.00
2018-12-19T22:15:33.098Z,3.53
2018-12-19T22:18:07.352Z,3.83
2018-12-19T22:20:36.078Z,1.87
2018-12-19T22:23:04.793Z,3.37
2018-12-19T22:25:33.441Z,6.37
2018-12-19T22:28:02.279Z,6.10
2018-12-19T22:30:31.751Z,6.53
2018-12-19T22:33:00.391Z,3.60
2018-12-19T22:35:29.054Z,2.27
2018-12-19T22:37:57.707Z,1.70
2018-12-19T22:40:28.270Z,2.77
2018-12-19T22:42:59.925Z,0.97
2018-12-19T22:45:28.728Z,1.43
2018-12-19T22:47:57.539Z,2.23
2018-12-19T22:50:26.361Z,1.80
2018-12-19T22:52:55.152Z,1.67
2018-12-19T22:55:23.899Z,1.60
2018-12-19T22:57:52.547Z,1.47
2018-12-19T23:00:22.355Z,1.20
2018-12-19T23:02:56.340Z,0.90
2018-12-19T23:05:30.479Z,1.40
2018-12-19T23:07:59.109Z,1.50
2018-12-19T23:10:27.777Z,1.67
2018-12-19T23:12:56.435Z,1.90
2018-12-19T23:15:25.467Z,1.90
2018-12-19T23:17:58.506Z,4.53
2018-12-19T23:20:27.167Z,9.83
2018-12-19T23:22:55.806Z,9.80
2018-12-19T23:25:24.448Z,9.70
2018-12-19T23:27:53.107Z,7.17
2018-12-19T23:30:21.770Z,5.40
2018-12-19T23:32:50.467Z,4.50
2018-12-19T23:35:20.967Z,3.50
2018-12-19T23:37:49.683Z,4.17
2018-12-19T23:40:18.487Z,4.60
2018-12-19T23:42:47.183Z,4.97
2018-12-19T23:45:15.852Z,10.63
2018-12-19T23:47:44.475Z,6.57
2018-12-19T23:50:13.242Z,5.50
2018-12-19T23:52:41.916Z,6.03
2018-12-19T23:55:10.598Z,5.30
2018-12-19T23:57:39.290Z,6.90
